Time;durP1;ratioP1;P1;durP2;ratioP2;P2;SDS_P1;SDS_P2;PMS_P1;PMS_P2;Temp;Humidity;BMP_temperature;BMP_pressure;BME280_temperature;BME280_humidity;BME280_pressure;Samples;Min_cycle;Max_cycle;Signal;HPM_P1;HPM_P2
2023/04/22 00:00:58;;;;;;;9.98;5.43;;;10.30;56.10;;;;;;4962169;28;20027;-80
2023/04/22 00:03:26;;;;;;;7.32;5.03;;;10.20;56.20;;;;;;4974747;28;20035;-79
2023/04/22 00:05:52;;;;;;;;;;;10.20;56.50;;;;;;4975911;28;20050;-78
2023/04/22 00:08:18;;;;;;;7.60;4.32;;;10.20;55.90;;;;;;4984582;28;19914;-81
2023/04/22 00:10:43;;;;;;;8.23;5.45;;;10.20;56.60;;;;;;4979694;28;20026;-80
2023/04/22 00:13:09;;;;;;;10.77;5.45;;;10.20;56.90;;;;;;4976071;28;20106;-80
2023/04/22 00:15:35;;;;;;;12.07;5.13;;;10.10;57.10;;;;;;4977177;28;20051;-79
2023/04/22 00:18:01;;;;;;;7.80;5.13;;;10.10;56.80;;;;;;4975890;28;20023;-80
2023/04/22 00:20:28;;;;;;;10.10;5.63;;;10.10;56.90;;;;;;4974851;28;20122;-79
2023/04/22 00:22:54;;;;;;;11.43;4.83;;;10.00;57.00;;;;;;4957218;28;20418;-80
2023/04/22 00:25:20;;;;;;;8.07;5.25;;;10.00;57.10;;;;;;4974966;28;20077;-78
2023/04/22 00:27:46;;;;;;;8.40;5.38;;;10.00;57.30;;;;;;4974390;28;20027;-80
2023/04/22 00:30:12;;;;;;;6.65;4.95;;;10.00;57.60;;;;;;4974789;28;20030;-81
2023/04/22 00:32:38;;;;;;;16.65;5.40;;;10.00;57.50;;;;;;4974602;28;20061;-79
2023/04/22 00:35:04;;;;;;;9.45;5.22;;;10.00;57.40;;;;;;4973923;28;20098;-80
2023/04/22 00:37:30;;;;;;;11.27;5.18;;;10.00;57.50;;;;;;4974211;28;20042;-79
2023/04/22 00:39:56;;;;;;;7.63;5.18;;;10.00;57.60;;;;;;4974344;28;20022;-79
2023/04/22 00:42:22;;;;;;;9.02;4.80;;;9.90;57.70;;;;;;4974398;28;20031;-81
2023/04/22 00:44:50;;;;;;;13.48;4.93;;;9.90;57.80;;;;;;4973933;28;20499;-79
2023/04/22 00:47:16;;;;;;;9.95;5.15;;;9.90;58.10;;;;;;4974809;28;20440;-79
2023/04/22 00:49:42;;;;;;;10.50;5.07;;;9.90;57.90;;;;;;4973837;28;20023;-79
2023/04/22 00:52:08;;;;;;;11.57;5.18;;;9.90;58.10;;;;;;4956825;28;20093;-80
2023/04/22 00:54:35;;;;;;;13.30;5.60;;;9.80;58.00;;;;;;4975490;28;20424;-79
2023/04/22 00:57:02;;;;;;;10.80;5.23;;;9.80;58.20;;;;;;4976355;28;20023;-79
2023/04/22 00:59:29;;;;;;;5.70;4.47;;;9.80;58.90;;;;;;4974783;28;20027;-80
2023/04/22 01:01:56;;;;;;;10.15;4.90;;;9.70;58.30;;;;;;4973791;28;20034;-79
2023/04/22 01:04:22;;;;;;;8.07;4.38;;;9.70;58.50;;;;;;4980689;28;20055;-79
2023/04/22 01:06:50;;;;;;;6.90;4.90;;;9.70;58.60;;;;;;4974321;28;20023;-80
2023/04/22 01:09:17;;;;;;;;;;;9.70;58.60;;;;;;4982619;28;20387;-80
2023/04/22 01:11:43;;;;;;;8.50;4.78;;;9.60;58.00;;;;;;4978732;28;19910;-78
2023/04/22 01:14:09;;;;;;;9.57;5.00;;;9.60;58.50;;;;;;4977551;28;20095;-80
2023/04/22 01:16:37;;;;;;;7.28;4.68;;;9.50;58.80;;;;;;4978591;28;20109;-80
2023/04/22 01:19:05;;;;;;;10.52;5.10;;;9.50;59.10;;;;;;4959998;28;20026;-79
2023/04/22 01:21:32;;;;;;;12.52;5.15;;;9.50;59.20;;;;;;4988242;28;20023;-80
2023/04/22 01:24:00;;;;;;;12.32;4.50;;;9.50;59.10;;;;;;4980525;28;20043;-80
2023/04/22 01:26:26;;;;;;;;;;;9.50;59.20;;;;;;4978146;28;20027;-80
2023/04/22 01:28:52;;;;;;;10.93;5.35;;;9.40;58.60;;;;;;4977357;28;19907;-80
2023/04/22 01:31:18;;;;;;;10.38;5.35;;;9.40;59.20;;;;;;4977359;28;20026;-80
2023/04/22 01:33:44;;;;;;;8.45;4.20;;;9.40;59.40;;;;;;4972555;28;20061;-81
2023/04/22 01:36:11;;;;;;;7.75;4.47;;;9.40;59.50;;;;;;4976475;28;20030;-80
2023/04/22 01:38:36;;;;;;;9.05;4.35;;;9.40;59.60;;;;;;4979143;28;20023;-81
2023/04/22 01:41:02;;;;;;;9.30;4.55;;;9.30;59.70;;;;;;4991304;28;20027;-81
2023/04/22 01:43:29;;;;;;;12.05;4.13;;;9.30;59.80;;;;;;4983940;28;20070;-79
2023/04/22 01:45:56;;;;;;;8.48;4.18;;;9.30;59.80;;;;;;4989977;28;20023;-82
2023/04/22 01:48:23;;;;;;;8.17;4.80;;;9.30;59.90;;;;;;4981128;28;20110;-80
2023/04/22 01:50:49;;;;;;;8.05;4.47;;;9.20;60.00;;;;;;4984434;28;20029;-78
2023/04/22 01:53:15;;;;;;;12.68;4.13;;;9.20;60.10;;;;;;4977575;28;20480;-80
2023/04/22 01:55:42;;;;;;;8.82;4.40;;;9.20;60.30;;;;;;4977490;28;20098;-80
2023/04/22 01:58:07;;;;;;;9.50;4.55;;;9.20;60.40;;;;;;4979170;28;20045;-79
2023/04/22 02:00:33;;;;;;;7.80;4.47;;;9.20;60.40;;;;;;4992204;28;20043;-80
2023/04/22 02:02:59;;;;;;;8.55;5.60;;;9.20;60.60;;;;;;4982328;28;20118;-80
2023/04/22 02:05:26;;;;;;;11.77;5.35;;;9.20;60.60;;;;;;4974897;28;20134;-81
2023/04/22 02:07:52;;;;;;;9.20;4.30;;;9.20;60.50;;;;;;4977504;28;20023;-80
2023/04/22 02:10:18;;;;;;;6.13;4.20;;;9.20;60.80;;;;;;4979377;28;20031;-78
2023/04/22 02:12:44;;;;;;;10.68;5.10;;;9.20;60.80;;;;;;4977315;28;20026;-80
2023/04/22 02:15:10;;;;;;;10.15;5.10;;;9.20;60.80;;;;;;4976368;28;20490;-79
2023/04/22 02:17:37;;;;;;;11.68;4.82;;;9.20;60.90;;;;;;4976394;28;20258;-79
2023/04/22 02:20:04;;;;;;;11.82;4.53;;;9.20;60.90;;;;;;4976195;28;20476;-78
2023/04/22 02:22:31;;;;;;;7.05;4.65;;;9.20;61.70;;;;;;4976311;28;20042;-78
2023/04/22 02:24:57;;;;;;;8.60;5.20;;;9.20;61.00;;;;;;4975988;28;20023;-79
2023/04/22 02:27:23;;;;;;;8.18;4.68;;;9.20;61.00;;;;;;4981599;28;20101;-77
2023/04/22 02:29:49;;;;;;;10.55;5.55;;;9.20;61.10;;;;;;4984179;28;20026;-79
2023/04/22 02:32:16;;;;;;;8.82;5.15;;;9.10;61.10;;;;;;4975976;28;20019;-80
2023/04/22 02:34:42;;;;;;;8.35;4.53;;;9.20;61.20;;;;;;4976055;28;20019;-79
2023/04/22 02:37:08;;;;;;;9.80;4.68;;;9.20;61.20;;;;;;4975471;28;20049;-79
2023/04/22 02:39:34;;;;;;;7.55;4.70;;;9.20;61.00;;;;;;4977566;28;20105;-79
2023/04/22 02:42:00;;;;;;;14.35;5.05;;;9.30;61.00;;;;;;4977314;28;20031;-78
2023/04/22 02:44:26;;;;;;;7.00;5.03;;;9.30;60.90;;;;;;4974928;28;20026;-79
2023/04/22 02:46:52;;;;;;;8.73;5.15;;;9.40;61.00;;;;;;4976437;28;20380;-80
2023/04/22 02:49:17;;;;;;;6.18;4.60;;;9.40;60.90;;;;;;4976371;28;20026;-79
2023/04/22 02:51:43;;;;;;;7.22;4.60;;;9.40;60.90;;;;;;4986317;28;20022;-82
2023/04/22 02:54:09;;;;;;;11.90;4.05;;;9.50;60.90;;;;;;4979586;28;20027;-80
2023/04/22 02:56:35;;;;;;;13.23;7.10;;;9.50;60.70;;;;;;4976035;28;20388;-80
2023/04/22 02:59:01;;;;;;;8.40;4.50;;;9.60;60.70;;;;;;4976563;28;20495;-80
2023/04/22 03:01:27;;;;;;;9.30;4.65;;;9.60;60.60;;;;;;4987729;28;20100;-80
2023/04/22 03:03:52;;;;;;;6.45;4.20;;;9.70;60.60;;;;;;4974170;28;20046;-82
2023/04/22 03:06:18;;;;;;;6.55;3.60;;;9.70;60.20;;;;;;4974571;28;20027;-81
2023/04/22 03:08:44;;;;;;;10.93;4.88;;;9.80;60.00;;;;;;4976086;28;20027;-80
2023/04/22 03:11:10;;;;;;;8.32;4.28;;;9.80;60.00;;;;;;4976083;28;20026;-78
2023/04/22 03:13:36;;;;;;;7.82;4.15;;;9.90;59.80;;;;;;4976116;28;20019;-82
2023/04/22 03:16:02;;;;;;;6.88;3.50;;;9.90;59.80;;;;;;4978676;28;20084;-79
2023/04/22 03:18:28;;;;;;;6.97;4.60;;;10.00;60.30;;;;;;4976233;28;20041;-80
2023/04/22 03:20:53;;;;;;;6.80;3.95;;;10.10;59.50;;;;;;4975729;28;20023;-81
2023/04/22 03:23:19;;;;;;;10.75;4.47;;;10.10;59.50;;;;;;4975289;28;20042;-80
2023/04/22 03:25:45;;;;;;;8.63;4.20;;;10.20;59.40;;;;;;4975462;28;20019;-80
2023/04/22 03:28:11;;;;;;;7.70;4.35;;;10.20;59.20;;;;;;4976474;28;20424;-81
2023/04/22 03:30:37;;;;;;;6.15;3.90;;;10.30;59.10;;;;;;4976540;28;20018;-80
2023/04/22 03:33:03;;;;;;;10.43;4.10;;;10.30;58.90;;;;;;4973877;28;20030;-80
2023/04/22 03:35:29;;;;;;;14.23;7.03;;;10.40;58.80;;;;;;4974082;28;20023;-78
2023/04/22 03:37:55;;;;;;;9.02;4.40;;;10.50;59.00;;;;;;4974988;28;20073;-82
2023/04/22 03:40:21;;;;;;;7.93;4.28;;;10.50;58.60;;;;;;4975642;28;20029;-79
2023/04/22 03:42:46;;;;;;;5.68;3.80;;;10.60;58.40;;;;;;4973824;28;20106;-80
2023/04/22 03:45:12;;;;;;;7.93;3.78;;;10.70;58.20;;;;;;4987330;28;20058;-80
2023/04/22 03:47:38;;;;;;;7.90;3.92;;;10.70;58.20;;;;;;4977045;28;20124;-79
2023/04/22 03:50:06;;;;;;;7.22;4.20;;;10.70;58.10;;;;;;4989808;28;20504;-80
2023/04/22 03:52:31;;;;;;;8.18;3.60;;;10.80;58.00;;;;;;4979483;28;20027;-80
2023/04/22 03:54:57;;;;;;;8.57;4.50;;;10.90;57.90;;;;;;4981346;28;20042;-81
2023/04/22 03:57:23;;;;;;;5.28;4.30;;;11.00;57.90;;;;;;4983741;28;20067;-81
2023/04/22 03:59:49;;;;;;;7.25;3.80;;;11.00;57.80;;;;;;4976003;28;20376;-80
2023/04/22 04:02:15;;;;;;;8.35;4.07;;;11.00;57.50;;;;;;4982854;28;20038;-80
2023/04/22 04:04:41;;;;;;;10.90;4.32;;;11.10;57.20;;;;;;4992238;28;20051;-82
2023/04/22 04:07:07;;;;;;;7.65;4.53;;;11.10;57.20;;;;;;4977630;28;20110;-80
2023/04/22 04:09:32;;;;;;;7.35;3.78;;;11.20;57.30;;;;;;4974482;28;20031;-81
2023/04/22 04:11:58;;;;;;;9.57;5.50;;;11.20;56.90;;;;;;4974641;28;20015;-80
2023/04/22 04:14:24;;;;;;;9.48;4.07;;;11.30;56.80;;;;;;4957682;28;20491;-79
2023/04/22 04:16:50;;;;;;;9.18;5.40;;;11.40;56.80;;;;;;4980826;28;20054;-81
2023/04/22 04:19:16;;;;;;;8.23;4.18;;;11.40;56.60;;;;;;4974949;28;20023;-80
2023/04/22 04:21:42;;;;;;;6.65;3.88;;;11.50;56.30;;;;;;4975266;28;20082;-80
2023/04/22 04:24:08;;;;;;;9.52;4.80;;;11.50;56.10;;;;;;4976048;28;20038;-79
2023/04/22 04:26:34;;;;;;;7.82;4.38;;;11.60;55.90;;;;;;4974266;28;20054;-79
2023/04/22 04:29:00;;;;;;;9.30;3.83;;;11.60;55.80;;;;;;4978774;28;20554;-79
2023/04/22 04:31:27;;;;;;;10.52;4.70;;;11.70;56.00;;;;;;4974207;28;20015;-80
2023/04/22 04:33:56;;;;;;;8.77;5.60;;;11.70;56.10;;;;;;4956413;28;20034;-79
2023/04/22 04:36:24;;;;;;;8.43;5.00;;;11.80;56.80;;;;;;4974439;28;20026;-78
2023/04/22 04:38:51;;;;;;;9.98;5.05;;;12.10;56.10;;;;;;4974693;28;20551;-81
2023/04/22 04:41:20;;;;;;;10.45;6.07;;;12.70;54.90;;;;;;4974985;28;20512;-83
2023/04/22 04:43:46;;;;;;;7.43;4.57;;;13.50;53.40;;;;;;4974112;28;20070;-84
2023/04/22 04:46:13;;;;;;;10.00;5.30;;;14.20;51.70;;;;;;4974137;28;20038;-83
2023/04/22 04:48:44;;;;;;;9.45;3.67;;;14.80;50.10;;;;;;4973805;28;20034;-82
2023/04/22 04:51:11;;;;;;;6.72;4.40;;;15.20;49.00;;;;;;4974155;28;20126;-84
2023/04/22 04:53:37;;;;;;;10.88;4.82;;;16.10;47.50;;;;;;4974221;28;20575;-84
2023/04/22 04:56:03;;;;;;;12.02;4.65;;;16.40;46.90;;;;;;4986080;28;20030;-82
2023/04/22 04:58:29;;;;;;;8.82;4.50;;;17.10;45.50;;;;;;4965535;28;20473;-81
2023/04/22 05:00:57;;;;;;;10.30;4.78;;;17.90;44.10;;;;;;4965752;28;20102;-82
2023/04/22 05:03:23;;;;;;;15.75;4.90;;;18.70;43.00;;;;;;4965554;28;20439;-83
2023/04/22 05:05:49;;;;;;;7.32;4.07;;;19.30;42.10;;;;;;4964692;28;20114;-81
2023/04/22 05:08:15;;;;;;;15.70;9.07;;;19.60;40.70;;;;;;4970808;28;20346;-81
2023/04/22 05:10:41;;;;;;;9.68;4.82;;;19.70;40.40;;;;;;4976252;28;20022;-82
2023/04/22 05:13:07;;;;;;;11.40;5.13;;;20.00;40.00;;;;;;4975936;28;20389;-84
2023/04/22 05:15:33;;;;;;;6.65;5.03;;;20.10;39.70;;;;;;4975790;28;20031;-81
2023/04/22 05:17:59;;;;;;;9.13;4.55;;;20.50;39.50;;;;;;4980994;28;20027;-81
2023/04/22 05:20:25;;;;;;;13.30;3.85;;;20.90;39.00;;;;;;4992362;28;20054;-82
2023/04/22 05:22:50;;;;;;;14.60;4.72;;;21.60;37.60;;;;;;4975125;28;20066;-82
2023/04/22 05:25:16;;;;;;;6.93;3.45;;;22.30;37.10;;;;;;4943805;28;20449;-82
2023/04/22 05:27:42;;;;;;;7.50;3.65;;;23.00;35.90;;;;;;4974748;28;20034;-82
2023/04/22 05:30:09;;;;;;;7.40;3.63;;;23.10;34.90;;;;;;4980585;28;20023;-82
2023/04/22 05:32:35;;;;;;;7.07;4.03;;;22.40;35.40;;;;;;4999554;28;20075;-81
2023/04/22 05:35:01;;;;;;;11.18;4.15;;;22.00;36.20;;;;;;4987581;28;20034;-82
2023/04/22 05:37:27;;;;;;;5.97;3.70;;;22.10;36.10;;;;;;4982500;28;20022;-81
2023/04/22 05:39:53;;;;;;;7.45;3.88;;;22.20;35.60;;;;;;4996044;28;20041;-84
2023/04/22 05:42:19;;;;;;;14.77;4.80;;;22.80;35.40;;;;;;4988574;28;20027;-82
2023/04/22 05:44:45;;;;;;;10.88;4.05;;;24.10;34.10;;;;;;4988076;28;20030;-83
2023/04/22 05:47:10;;;;;;;4.35;3.58;;;25.00;33.00;;;;;;5005675;28;20053;-83
2023/04/22 05:49:36;;;;;;;8.98;3.55;;;25.50;32.50;;;;;;4988227;28;20030;-81
2023/04/22 05:52:02;;;;;;;11.23;4.40;;;26.40;32.00;;;;;;4998281;28;20030;-82
2023/04/22 05:54:28;;;;;;;6.43;3.42;;;26.40;31.30;;;;;;4973426;28;20430;-83
2023/04/22 05:56:55;;;;;;;11.93;2.83;;;26.60;31.40;;;;;;4991373;28;20030;-82
2023/04/22 05:59:21;;;;;;;5.18;2.67;;;;;;;;;;4966536;28;20019;-82
2023/04/22 06:01:47;;;;;;;6.73;2.63;;;27.20;30.60;;;;;;4968733;28;20073;-81
2023/04/22 06:04:13;;;;;;;4.53;3.08;;;28.90;30.10;;;;;;4988649;28;20280;-84
2023/04/22 06:06:39;;;;;;;8.63;2.78;;;29.30;29.40;;;;;;4981283;28;20041;-82
2023/04/22 06:09:06;;;;;;;7.70;2.30;;;28.60;29.50;;;;;;4985522;28;20038;-82
2023/04/22 06:11:32;;;;;;;9.37;2.60;;;28.40;29.40;;;;;;4956151;28;20369;-84
2023/04/22 06:13:58;;;;;;;9.05;2.90;;;29.10;29.20;;;;;;4981446;28;20091;-83
2023/04/22 06:16:25;;;;;;;11.30;3.42;;;30.00;28.90;;;;;;4979763;28;20066;-83
2023/04/22 06:18:51;;;;;;;4.82;1.75;;;30.30;28.40;;;;;;4985176;28;20015;-82
2023/04/22 06:21:17;;;;;;;3.10;1.83;;;30.60;28.30;;;;;;4976709;28;20501;-84
2023/04/22 06:23:43;;;;;;;3.50;2.10;;;30.80;28.30;;;;;;4977494;28;20583;-82
2023/04/22 06:26:08;;;;;;;6.00;1.98;;;30.70;28.00;;;;;;4967212;28;20033;-82
2023/04/22 06:28:34;;;;;;;7.35;2.28;;;30.60;28.00;;;;;;4989781;28;20069;-83
2023/04/22 06:31:01;;;;;;;4.65;1.35;;;30.90;28.00;;;;;;4977122;28;20015;-83
2023/04/22 06:33:27;;;;;;;1.23;0.77;;;31.10;27.70;;;;;;4964620;29;20054;-82
2023/04/22 06:35:54;;;;;;;5.45;2.13;;;30.50;27.60;;;;;;4993278;28;20030;-82
2023/04/22 06:38:20;;;;;;;7.47;2.63;;;29.90;28.00;;;;;;4975831;28;20058;-82
2023/04/22 06:40:45;;;;;;;4.95;1.73;;;28.90;28.30;;;;;;4984944;28;20365;-82
2023/04/22 06:43:11;;;;;;;6.18;2.35;;;28.20;29.30;;;;;;4991838;28;20038;-82
2023/04/22 06:45:37;;;;;;;3.50;1.38;;;28.20;28.90;;;;;;4980699;28;20026;-80
2023/04/22 06:48:03;;;;;;;6.05;1.52;;;27.80;29.00;;;;;;4967544;28;20023;-83
2023/04/22 06:50:29;;;;;;;3.85;2.17;;;27.90;29.10;;;;;;4998305;28;20082;-81
2023/04/22 06:52:55;;;;;;;3.90;2.50;;;29.20;28.90;;;;;;4977519;28;20054;-82
2023/04/22 06:55:21;;;;;;;6.88;2.33;;;29.40;28.50;;;;;;4993252;28;20026;-81
2023/04/22 06:57:47;;;;;;;6.60;1.88;;;29.40;28.40;;;;;;4983054;28;20033;-83
2023/04/22 07:00:13;;;;;;;4.78;2.00;;;29.70;28.30;;;;;;4986820;28;20030;-84
2023/04/22 07:02:39;;;;;;;6.10;1.50;;;30.20;28.10;;;;;;4987776;28;20046;-85
2023/04/22 07:05:05;;;;;;;4.50;1.45;;;31.00;28.20;;;;;;4986838;28;20051;-83
2023/04/22 07:07:31;;;;;;;1.83;1.40;;;;;;;;;;4995985;28;20057;-81
2023/04/22 07:09:57;;;;;;;2.03;1.52;;;;;;;;;;4973312;28;20037;-82
2023/04/22 07:12:24;;;;;;;6.05;1.48;;;;;;;;;;4965604;28;20472;-82
2023/04/22 07:14:50;;;;;;;4.40;1.60;;;;;;;;;;4984019;28;20027;-83
2023/04/22 07:17:20;;;;;;;6.20;2.30;;;;;;;;;;4949414;29;20458;-82
2023/04/22 07:19:47;;;;;;;5.72;1.90;;;;;;;;;;4977812;28;20034;-82
2023/04/22 07:22:14;;;;;;;11.10;1.95;;;;;;;;;;4987420;28;20027;-81
2023/04/22 07:24:40;;;;;;;4.20;2.10;;;;;;;;;;4998704;28;20031;-82
2023/04/22 07:27:06;;;;;;;6.22;2.03;;;31.00;27.20;;;;;;4976899;28;20033;-83
2023/04/22 07:29:32;;;;;;;3.40;1.85;;;20.00;37.70;;;;;;4992139;28;20031;-85
2023/04/22 07:31:58;;;;;;;3.47;2.08;;;21.00;36.80;;;;;;4973867;28;20041;-84
2023/04/22 07:34:24;;;;;;;6.65;2.00;;;23.20;34.40;;;;;;4986949;28;20054;-82
2023/04/22 07:36:53;;;;;;;2.67;1.40;;;25.70;32.10;;;;;;4972732;28;20051;-83
2023/04/22 07:39:19;;;;;;;4.35;1.42;;;26.30;30.00;;;;;;4963592;29;20062;-82
2023/04/22 07:41:45;;;;;;;2.35;1.40;;;26.40;30.00;;;;;;4987725;28;20019;-82
2023/04/22 07:44:15;;;;;;;4.63;1.85;;;27.20;29.80;;;;;;4973945;28;20027;-81
2023/04/22 07:46:41;;;;;;;4.45;1.75;;;29.30;28.90;;;;;;5003808;28;20026;-83
2023/04/22 07:49:07;;;;;;;6.88;1.50;;;30.40;28.10;;;;;;4976818;28;20031;-81
2023/04/22 07:51:33;;;;;;;8.07;1.80;;;;;;;;;;4981558;28;20089;-81
2023/04/22 07:54:00;;;;;;;5.40;1.77;;;31.30;27.70;;;;;;4983606;28;20079;-88
2023/04/22 07:56:29;;;;;;;5.32;1.88;;;33.40;26.90;;;;;;4987737;28;20061;-89
2023/04/22 07:59:02;;;;;;;7.50;1.92;;;33.40;27.00;;;;;;4972832;28;20141;-89
2023/04/22 08:01:29;;;;;;;4.07;2.15;;;33.50;26.30;;;;;;4940566;28;20035;-87
2023/04/22 08:04:01;;;;;;;8.18;1.98;;;32.70;26.10;;;;;;4984199;28;20410;-86
2023/04/22 08:06:27;;;;;;;7.85;2.75;;;;;;;;;;4990277;28;20027;-88
2023/04/22 08:08:53;;;;;;;9.63;3.40;;;29.90;26.90;;;;;;4979420;28;20049;-87
2023/04/22 08:11:21;;;;;;;5.78;2.60;;;;;;;;;;5003570;28;20899;-87
2023/04/22 08:13:48;;;;;;;3.17;1.80;;;25.20;29.70;;;;;;4990976;28;20033;-89
2023/04/22 08:16:15;;;;;;;4.53;2.60;;;21.50;34.00;;;;;;4973001;28;20030;-88
2023/04/22 08:18:41;;;;;;;4.37;2.00;;;20.20;35.50;;;;;;4942660;29;20038;-88
2023/04/22 08:21:07;;;;;;;3.97;2.83;;;19.20;36.80;;;;;;4952213;29;20046;-90
2023/04/22 08:23:33;;;;;;;5.75;2.75;;;19.00;38.00;;;;;;4933186;29;20083;-89
2023/04/22 08:26:00;;;;;;;4.53;1.80;;;19.10;37.90;;;;;;4972951;28;20028;-88
2023/04/22 08:28:28;;;;;;;6.13;2.50;;;19.00;37.40;;;;;;4955263;28;20091;-90
2023/04/22 08:30:54;;;;;;;;;;;18.70;37.60;;;;;;4947386;29;20095;-87
2023/04/22 08:33:20;;;;;;;7.57;2.83;;;18.60;37.50;;;;;;4952284;29;19923;-88
2023/04/22 08:35:46;;;;;;;5.10;1.58;;;18.30;38.60;;;;;;4922501;28;20030;-89
2023/04/22 08:38:14;;;;;;;7.50;2.67;;;18.10;37.90;;;;;;4950903;29;20038;-89
2023/04/22 08:40:41;;;;;;;10.00;2.30;;;18.50;38.00;;;;;;4965996;28;20070;-89
2023/04/22 08:43:08;;;;;;;10.57;3.45;;;20.10;37.30;;;;;;4976037;28;20038;-90
2023/04/22 08:45:38;;;;;;;4.15;1.48;;;22.60;34.00;;;;;;4972715;28;20023;-90
2023/04/22 08:48:08;;;;;;;11.70;2.53;;;23.80;31.60;;;;;;4995919;28;20073;-91
2023/04/22 08:50:38;;;;;;;6.15;2.00;;;24.70;30.70;;;;;;5001965;28;20027;-90
2023/04/22 08:53:04;;;;;;;3.95;1.85;;;24.60;29.80;;;;;;4991867;28;20118;-90
2023/04/22 08:55:30;;;;;;;10.27;2.85;;;23.80;31.10;;;;;;4989270;28;20027;-88
2023/04/22 08:58:00;;;;;;;3.50;1.60;;;25.20;30.40;;;;;;4974312;28;20043;-89
2023/04/22 09:00:26;;;;;;;7.25;2.03;;;26.50;29.10;;;;;;4945805;28;20031;-89
2023/04/22 09:06:46;;;;;;;6.72;3.15;;;25.20;29.70;;;;;;4975597;28;20348;-89
2023/04/22 09:09:13;;;;;;;3.30;2.13;;;23.00;31.20;;;;;;4935187;29;20047;-87
2023/04/22 09:11:39;;;;;;;6.10;1.83;;;21.50;32.90;;;;;;4956091;28;20027;-85
2023/04/22 09:14:06;;;;;;;8.13;2.28;;;20.30;34.40;;;;;;4976207;28;20034;-86
2023/04/22 09:16:39;;;;;;;3.83;1.77;;;19.90;35.20;;;;;;4975354;28;20019;-86
2023/04/22 09:19:05;;;;;;;4.10;2.00;;;19.80;35.80;;;;;;4946899;28;20023;-87
2023/04/22 09:21:35;;;;;;;5.05;1.88;;;20.30;35.40;;;;;;4976077;28;20023;-88
2023/04/22 09:24:13;;;;;;;5.35;1.83;;;21.80;34.60;;;;;;4937580;29;20035;-89
2023/04/22 09:26:41;;;;;;;5.10;1.70;;;24.30;32.10;;;;;;4955345;29;20073;-89
2023/04/22 09:29:12;;;;;;;6.18;2.50;;;25.00;30.00;;;;;;4979804;28;20050;-89
2023/04/22 09:31:39;;;;;;;2.95;1.42;;;25.40;30.30;;;;;;5003099;28;20030;-80
2023/04/22 09:34:05;;;;;;;5.50;2.17;;;27.20;29.30;;;;;;4993310;28;20031;-85
2023/04/22 09:36:36;;;;;;;5.90;2.33;;;28.60;28.40;;;;;;4990618;28;20042;-87
2023/04/22 09:39:06;;;;;;;10.55;2.83;;;29.20;27.90;;;;;;4981797;28;20023;-84
2023/04/22 09:41:39;;;;;;;2.47;1.50;;;28.30;27.80;;;;;;4996130;28;20037;-82
2023/04/22 09:44:16;;;;;;;6.93;2.80;;;27.10;28.00;;;;;;4985713;28;20126;-81
2023/04/22 09:46:51;;;;;;;3.83;1.50;;;27.50;28.40;;;;;;4969738;28;20110;-93
2023/04/22 09:49:20;;;;;;;5.93;4.20;;;29.00;27.80;;;;;;4969309;28;20090;-88
2023/04/22 09:51:46;;;;;;;2.53;1.67;;;30.80;27.10;;;;;;4996636;28;20019;-87
2023/04/22 09:54:12;;;;;;;4.10;1.60;;;;;;;;;;4981485;28;20104;-88
2023/04/22 09:56:51;;;;;;;4.43;2.00;;;30.60;26.20;;;;;;4987363;28;20071;-85
2023/04/22 09:59:31;;;;;;;3.90;1.95;;;30.20;26.70;;;;;;4978032;28;20264;-88
2023/04/22 10:01:59;;;;;;;8.07;2.15;;;30.20;26.80;;;;;;4995618;28;20049;-90
2023/04/22 10:04:26;;;;;;;4.13;2.03;;;;;;;;;;4983324;28;20142;-91
2023/04/22 10:06:52;;;;;;;5.90;2.00;;;;;;;;;;4986422;28;20019;-92
2023/04/22 10:09:20;;;;;;;3.47;2.00;;;;;;;;;;4986263;28;20042;-85
2023/04/22 10:11:46;;;;;;;4.22;1.75;;;;;;;;;;4987116;28;20015;-81
2023/04/22 10:14:15;;;;;;;4.97;2.25;;;29.40;25.90;;;;;;4984682;28;20019;-82
2023/04/22 10:16:45;;;;;;;3.97;2.42;;;25.20;29.40;;;;;;4985341;28;20026;-82
2023/04/22 10:19:21;;;;;;;4.75;2.50;;;23.60;30.40;;;;;;4993081;28;20022;-82
2023/04/22 10:21:53;;;;;;;10.00;7.13;;;22.20;32.00;;;;;;4977496;28;20392;-82
2023/04/22 10:24:20;;;;;;;5.55;2.70;;;21.00;33.60;;;;;;4978844;28;20484;-82
2023/04/22 10:26:57;;;;;;;7.93;2.30;;;20.30;33.80;;;;;;4985402;28;20035;-85
2023/04/22 10:29:25;;;;;;;7.22;2.20;;;19.90;34.00;;;;;;4983583;28;20031;-83
2023/04/22 10:32:04;;;;;;;7.90;2.50;;;19.50;34.50;;;;;;4963772;28;20027;-83
2023/04/22 10:34:33;;;;;;;7.55;1.92;;;19.50;35.40;;;;;;4984949;28;20085;-84
2023/04/22 10:37:05;;;;;;;8.13;2.40;;;19.50;34.60;;;;;;4983474;28;20080;-84
2023/04/22 10:39:32;;;;;;;6.65;2.10;;;19.50;34.80;;;;;;4995384;28;20023;-83
2023/04/22 10:42:01;;;;;;;4.25;2.20;;;19.40;35.10;;;;;;4980735;28;20074;-84
2023/04/22 10:44:29;;;;;;;5.05;2.10;;;19.40;34.60;;;;;;4983159;28;20503;-79
2023/04/22 10:46:56;;;;;;;3.70;1.88;;;19.40;33.90;;;;;;4978022;28;20030;-82
2023/04/22 10:49:24;;;;;;;4.80;2.70;;;19.00;34.30;;;;;;4984179;28;20030;-83
2023/04/22 10:51:54;;;;;;;1.95;1.52;;;18.70;35.40;;;;;;4977570;28;20050;-82
2023/04/22 10:54:26;;;;;;;4.15;2.08;;;18.50;35.50;;;;;;4973535;28;20043;-80
2023/04/22 10:57:10;;;;;;;4.90;2.10;;;18.30;35.90;;;;;;4978522;28;20125;-82
2023/04/22 10:59:50;;;;;;;3.97;2.13;;;18.30;36.00;;;;;;4982180;28;20126;-82
2023/04/22 11:02:18;;;;;;;6.30;2.38;;;18.40;36.30;;;;;;4978581;28;20031;-82
2023/04/22 11:04:44;;;;;;;6.35;2.88;;;18.40;36.60;;;;;;4975638;28;20077;-82
2023/04/22 11:07:25;;;;;;;7.47;2.50;;;18.40;36.80;;;;;;4975186;28;20027;-81
2023/04/22 11:09:58;;;;;;;4.85;2.60;;;18.40;36.70;;;;;;4978115;28;20495;-81
2023/04/22 11:12:50;;;;;;;4.70;2.03;;;18.40;36.90;;;;;;4993344;28;20030;-81
2023/04/22 11:15:18;;;;;;;12.13;2.58;;;18.20;36.60;;;;;;4992349;28;20039;-84
2023/04/22 11:17:46;;;;;;;5.15;3.20;;;17.80;37.30;;;;;;4994116;28;20085;-83
2023/04/22 11:20:17;;;;;;;7.82;2.47;;;17.60;38.00;;;;;;4971534;28;20026;-83
2023/04/22 11:22:54;;;;;;;7.47;2.50;;;17.40;38.20;;;;;;4974366;28;20089;-85
2023/04/22 11:25:22;;;;;;;7.18;3.35;;;17.40;38.10;;;;;;4964301;28;20672;-84
2023/04/22 11:27:48;;;;;;;6.82;2.00;;;17.50;38.10;;;;;;4993493;28;20027;-85
2023/04/22 11:30:15;;;;;;;3.85;2.03;;;17.70;37.30;;;;;;4987696;28;20033;-79
2023/04/22 11:32:47;;;;;;;5.22;2.20;;;17.80;37.10;;;;;;4981029;28;20145;-80
2023/04/22 11:35:16;;;;;;;5.65;3.40;;;17.70;36.60;;;;;;4958440;28;20069;-81
2023/04/22 11:37:51;;;;;;;3.28;2.30;;;17.60;36.30;;;;;;4985613;28;20079;-81
2023/04/22 11:40:24;;;;;;;3.97;2.80;;;17.40;37.10;;;;;;4973822;28;20409;-82
2023/04/22 11:42:50;;;;;;;4.72;2.25;;;17.30;36.70;;;;;;4971504;28;20067;-81
2023/04/22 11:45:16;;;;;;;3.55;1.58;;;17.20;37.20;;;;;;4956771;28;20078;-79
2023/04/22 11:47:44;;;;;;;2.30;1.50;;;17.10;37.10;;;;;;4967016;28;20106;-81
2023/04/22 11:50:12;;;;;;;5.82;2.33;;;17.10;37.40;;;;;;4976062;28;20027;-80
2023/04/22 11:52:51;;;;;;;4.45;1.98;;;17.20;37.40;;;;;;4967387;28;20023;-80
2023/04/22 11:55:38;;;;;;;3.17;1.70;;;17.30;37.30;;;;;;4961918;28;20031;-77
2023/04/22 11:58:13;;;;;;;5.47;2.65;;;17.30;37.30;;;;;;4965912;28;20019;-81
2023/04/22 12:00:48;;;;;;;4.55;2.40;;;17.60;37.50;;;;;;4949443;28;20460;-78
2023/04/22 12:03:19;;;;;;;5.00;2.40;;;17.80;36.60;;;;;;4967510;28;20472;-78
2023/04/22 12:05:48;;;;;;;6.95;2.17;;;17.80;36.60;;;;;;4977995;28;20043;-82
2023/04/22 12:08:17;;;;;;;3.95;1.85;;;17.80;37.40;;;;;;4976450;28;20041;-81
2023/04/22 12:10:53;;;;;;;5.00;1.88;;;17.70;36.80;;;;;;4983373;28;20125;-82
2023/04/22 12:13:27;;;;;;;2.83;2.10;;;17.40;36.80;;;;;;4967677;28;20492;-80
2023/04/22 12:16:03;;;;;;;3.53;1.75;;;17.20;37.00;;;;;;4971139;28;20084;-80
2023/04/22 12:18:34;;;;;;;7.55;2.05;;;17.10;36.70;;;;;;4980303;28;20023;-80
2023/04/22 12:21:03;;;;;;;6.07;2.15;;;16.90;36.70;;;;;;4959437;28;20515;-81
2023/04/22 12:23:30;;;;;;;3.22;2.08;;;16.80;36.80;;;;;;4975817;28;20039;-80
2023/04/22 12:25:56;;;;;;;5.00;1.85;;;16.70;37.80;;;;;;4974891;28;20030;-80
2023/04/22 12:28:22;;;;;;;7.57;2.42;;;16.70;37.00;;;;;;4975709;28;20037;-80
2023/04/22 12:30:48;;;;;;;10.20;2.53;;;16.60;37.70;;;;;;4988817;28;20075;-79
2023/04/22 12:33:14;;;;;;;6.07;2.38;;;16.60;37.90;;;;;;4974899;28;20031;-80
2023/04/22 12:35:40;;;;;;;6.75;1.92;;;16.40;38.00;;;;;;4974702;28;20019;-80
2023/04/22 12:38:06;;;;;;;5.05;2.50;;;16.40;38.30;;;;;;4974685;28;20460;-79
2023/04/22 12:40:32;;;;;;;5.13;2.13;;;16.30;38.40;;;;;;4974693;28;20030;-80
2023/04/22 12:42:58;;;;;;;4.00;2.10;;;16.30;38.40;;;;;;4974602;28;20034;-79
2023/04/22 12:45:23;;;;;;;4.60;2.17;;;16.30;38.40;;;;;;4974674;28;20424;-82
2023/04/22 12:47:52;;;;;;;6.38;2.45;;;16.30;38.40;;;;;;4979300;28;20034;-79
2023/04/22 12:50:19;;;;;;;4.47;2.78;;;16.30;38.60;;;;;;4995509;28;20019;-81
2023/04/22 12:52:45;;;;;;;7.93;2.25;;;16.30;38.00;;;;;;4978851;28;20376;-81
2023/04/22 12:55:10;;;;;;;5.22;1.95;;;16.30;37.70;;;;;;4976001;28;20031;-82
2023/04/22 12:57:36;;;;;;;5.32;2.90;;;16.30;37.70;;;;;;4976561;28;20117;-79